Aérodrome :
LOGIN :

S'inscrire | Disclaimer

   EN    FR    IT 

 










Légende :    VFR   VFR Marginal   IFR   IFR Intensif   IFR Très Intensif
Visi : 
Plafond : 
>= 8 km
>= 3000ft
5 à 8 km
1000 à 3000 ft
1500m à 5 km
500 à 1000 ft
800 à 1500m
200 à 500 ft
< 800m
< 200 ft
Symboles :   Orages  Brouillard  Fortes neiges  Fortes précipitations  Vent > 20 kt
SIGMETs :   Divers  Orages  Givrage  Turbulence  Onde Orograph.  Cendres Volcan.






- Altitude de l'aérodrome : 256 ft
- Code IATA : CFR


LFRK - Caen

DERNIER METAR :
  • 270630Z AUTO 32003KT 290V350 CAVOK 15/12 Q1034 NOSIG

METARs EXPIRÉS :
  • 270600Z AUTO 32003KT CAVOK 13/11 Q1034 NOSIG
  • 270530Z AUTO 31003KT CAVOK 12/10 Q1034 NOSIG
  • 270500Z AUTO 31004KT 7000 NSC 10/09 Q1034 NOSIG
  • 270430Z AUTO 30004KT 6000 NSC 09/09 Q1034 NOSIG
  • 270400Z AUTO 29004KT 7000 NSC 10/08 Q1034 NOSIG

TAF TAF LFRK
Valide du 27 à 06h jusqu'au 28 à 06h UTC


270500Z 2706/2806 32004KT CAVOK
BECMG 2711/2713 02010KT
Météo : +33 2 31 26 68 11



MET'MAP, la Météo Aéronautique d'un coup d'oeil ! - Copyright ORBIFLY Décembre 2007 - Disclaimer

ORBIFLY MET'MAP TEAM :

Programmation & Développement : Alexandra Zaïnal
Sur une idée originale de : Baudouin d'Aumeries
Assistance à la programmation : Marc-Olivier Méhu
Soutien technique & logistique : Manuel Goepfert

Contact : metmap@orbifly.com




SOURCES & CREDITS :

   NOAA